Terminal Aerodrome Forecast
Issued by NWS

Home | Current Version | Previous Version | Text Only | Print | Product List | Glossary On
Versions: 1 2 3 4 5 6 7 8 9 10 11 12 13 14 15 16 17 18 19 20
000
FTUS42 KFFC 241100
TAFFTY
TAF
KFTY 241126Z 2412/2512 23003KT 6SM BR FEW040
     FM241400 26006KT P6SM BKN040
     FM241700 27008G16KT P6SM VCSH BKN050
     FM242300 30006KT P6SM VCSH SCT050 BKN100
     FM250300 29004KT P6SM SCT120 BKN250=

USA.gov is the U.S. government's official web portal to all federal, state and local government web resources and services.